Time;durP1;ratioP1;P1;durP2;ratioP2;P2;SDS_P1;SDS_P2;PMS_P1;PMS_P2;Temp;Humidity;BMP_temperature;BMP_pressure;BME280_temperature;BME280_humidity;BME280_pressure;Samples;Min_cycle;Max_cycle;Signal;HPM_P1;HPM_P2
2023/05/20 00:00:12;;;;;;;13.05;5.28;;;;;;;;;;5074390;28;20039;-67
2023/05/20 00:02:39;;;;;;;19.90;6.18;;;;;;;;;;5071595;28;20042;-67
2023/05/20 00:05:05;;;;;;;16.55;6.03;;;;;;;;;;5071708;28;20152;-67
2023/05/20 00:07:32;;;;;;;19.95;6.85;;;;;;;;;;5073196;28;20067;-67
2023/05/20 00:09:58;;;;;;;21.65;6.22;;;;;;;;;;5070844;28;20130;-67
2023/05/20 00:12:24;;;;;;;15.98;6.50;;;;;;;;;;5072650;28;20174;-67
2023/05/20 00:14:51;;;;;;;15.75;5.85;;;;;;;;;;5078409;28;20547;-67
2023/05/20 00:17:17;;;;;;;16.65;5.45;;;;;;;;;;5073772;28;20036;-67
2023/05/20 00:19:43;;;;;;;14.35;6.18;;;;;;;;;;5076450;28;20122;-67
2023/05/20 00:22:09;;;;;;;17.00;5.53;;;;;;;;;;5054371;28;20052;-67
2023/05/20 00:24:35;;;;;;;13.77;5.35;;;;;;;;;;5072916;28;20551;-67
2023/05/20 00:27:01;;;;;;;18.98;5.40;;;;;;;;;;5076469;28;20128;-66
2023/05/20 00:29:27;;;;;;;12.00;5.03;;;;;;;;;;5071028;28;20139;-67
2023/05/20 00:31:54;;;;;;;13.80;5.28;;;;;;;;;;5070658;28;20048;-67
2023/05/20 00:34:20;;;;;;;17.23;5.30;;;;;;;;;;5075979;28;20055;-67
2023/05/20 00:36:46;;;;;;;16.25;5.75;;;;;;;;;;5088412;27;20060;-67
2023/05/20 00:39:12;;;;;;;17.48;5.68;;;;;;;;;;5089939;27;20046;-67
2023/05/20 00:41:38;;;;;;;16.77;6.50;;;;;;;;;;5070184;28;20044;-67
2023/05/20 00:44:04;;;;;;;16.92;5.22;;;;;;;;;;5093968;28;20048;-67
2023/05/20 00:46:31;;;;;;;19.42;6.60;;;;;;;;;;5070736;28;20052;-66
2023/05/20 00:48:57;;;;;;;17.58;5.70;;;;;;;;;;5087824;28;20036;-66
2023/05/20 00:51:23;;;;;;;13.70;4.95;;;;;;;;;;5055236;28;20051;-67
2023/05/20 00:53:50;;;;;;;17.38;5.97;;;;;;;;;;5072007;28;20071;-66
2023/05/20 00:56:17;;;;;;;13.07;5.35;;;;;;;;;;5089514;27;20505;-67
2023/05/20 00:58:43;;;;;;;20.50;5.68;;;;;;;;;;5092515;28;20042;-66
2023/05/20 01:01:09;;;;;;;14.35;6.47;;;;;;;;;;5087040;28;20043;-67
2023/05/20 01:03:36;;;;;;;22.45;6.07;;;;;;;;;;5090604;28;20394;-66
2023/05/20 01:06:02;;;;;;;16.35;5.80;;;;;;;;;;5088622;28;20407;-67
2023/05/20 01:08:28;;;;;;;16.73;5.38;;;;;;;;;;5094303;28;20055;-66
2023/05/20 01:11:07;;;;;;;16.45;5.80;;;;;;;;;;5069548;28;20056;-66
2023/05/20 01:13:38;;;;;;;21.20;6.97;;;;;;;;;;5054182;28;20040;-66
2023/05/20 01:16:05;;;;;;;18.80;6.93;;;;;;;;;;5071890;28;20040;-67
2023/05/20 01:18:32;;;;;;;14.60;5.85;;;;;;;;;;5098069;28;20111;-66
2023/05/20 01:21:00;;;;;;;19.75;6.22;;;;;;;;;;5089789;28;20051;-66
2023/05/20 01:23:32;;;;;;;22.30;6.38;;;;;;;;;;5070959;28;20043;-67
2023/05/20 01:25:59;;;;;;;15.35;6.03;;;;;;;;;;5089176;28;20048;-67
2023/05/20 01:28:25;;;;;;;20.75;7.18;;;;;;;;;;5086595;28;20463;-67
2023/05/20 01:30:55;;;;;;;19.63;6.68;;;;;;;;;;5068238;28;20048;-67
2023/05/20 01:33:22;;;;;;;15.50;5.55;;;;;;;;;;5073337;28;20089;-66
2023/05/20 01:35:48;;;;;;;22.77;8.10;;;;;;;;;;5068083;28;20056;-67
2023/05/20 01:38:15;;;;;;;11.02;5.80;;;;;;;;;;5072187;28;20052;-66
2023/05/20 01:40:42;;;;;;;13.73;6.07;;;;;;;;;;5072436;28;20048;-66
2023/05/20 01:43:09;;;;;;;14.55;6.55;;;;;;;;;;5072642;28;20040;-67
2023/05/20 01:45:35;;;;;;;19.05;6.47;;;;;;;;;;5069747;28;20087;-66
2023/05/20 01:48:02;;;;;;;39.50;9.20;;;;;;;;;;5068518;28;20040;-66
2023/05/20 01:50:28;;;;;;;19.77;6.97;;;;;;;;;;5069775;28;20679;-67
2023/05/20 01:52:54;;;;;;;19.55;6.03;;;;;;;;;;5068333;28;20055;-67
2023/05/20 01:55:21;;;;;;;15.85;6.10;;;;;;;;;;5068741;28;20041;-67
2023/05/20 01:57:47;;;;;;;17.92;7.10;;;;;;;;;;5067967;28;20059;-67
2023/05/20 02:00:13;;;;;;;13.63;5.90;;;;;;;;;;5071227;28;20421;-66
2023/05/20 02:02:40;;;;;;;17.17;6.07;;;;;;;;;;5070098;28;20067;-67
2023/05/20 02:05:06;;;;;;;12.13;6.43;;;;;;;;;;5070263;28;20581;-66
2023/05/20 02:07:32;;;;;;;17.60;6.88;;;;;;;;;;5067852;28;20036;-67
2023/05/20 02:09:58;;;;;;;18.20;6.65;;;;;;;;;;5069193;28;20490;-67
2023/05/20 02:12:25;;;;;;;14.13;7.00;;;;;;;;;;5071770;28;20044;-67
2023/05/20 02:14:51;;;;;;;16.80;6.90;;;;;;;;;;5074740;28;20032;-67
2023/05/20 02:17:17;;;;;;;14.20;6.65;;;;;;;;;;5081191;28;20036;-66
2023/05/20 02:19:44;;;;;;;18.90;7.38;;;;;;;;;;5075902;28;20615;-66
2023/05/20 02:22:10;;;;;;;17.63;6.47;;;;;;;;;;5075786;28;20213;-66
2023/05/20 02:24:37;;;;;;;20.10;6.47;;;;;;;;;;5074157;28;20055;-67
2023/05/20 02:27:03;;;;;;;15.60;6.15;;;;;;;;;;5073968;28;20051;-67
2023/05/20 02:29:29;;;;;;;22.17;7.13;;;;;;;;;;5074615;28;20891;-67
2023/05/20 02:31:56;;;;;;;20.25;7.47;;;;;;;;;;5075712;28;20125;-67
2023/05/20 02:34:22;;;;;;;19.92;5.88;;;;;;;;;;5071748;28;20050;-66
2023/05/20 02:36:48;;;;;;;13.27;6.32;;;;;;;;;;5092735;27;20048;-66
2023/05/20 02:39:15;;;;;;;14.40;6.65;;;;;;;;;;5075585;28;20090;-67
2023/05/20 02:41:41;;;;;;;17.73;6.43;;;;;;;;;;5072976;27;20066;-66
2023/05/20 02:44:08;;;;;;;16.48;7.20;;;;;;;;;;5069305;27;20040;-67
2023/05/20 02:46:34;;;;;;;17.33;6.65;;;;;;;;;;5093967;27;20055;-67
2023/05/20 02:49:00;;;;;;;16.25;6.95;;;;;;;;;;5093543;27;20044;-67
2023/05/20 02:51:26;;;;;;;19.88;6.78;;;;;;;;;;5074384;28;20096;-67
2023/05/20 02:53:52;;;;;;;12.63;5.53;;;;;;;;;;5074702;28;20071;-67
2023/05/20 02:56:20;;;;;;;20.85;7.05;;;;;;;;;;5057711;28;20802;-67
2023/05/20 02:58:46;;;;;;;16.13;6.20;;;;;;;;;;5090949;27;20036;-67
2023/05/20 03:01:12;;;;;;;14.73;6.03;;;;;;;;;;5094616;27;20048;-67
2023/05/20 03:03:39;;;;;;;16.55;6.43;;;;;;;;;;5074451;28;20040;-67
2023/05/20 03:06:06;;;;;;;13.85;5.90;;;;;;;;;;5075210;27;20117;-67
2023/05/20 03:08:34;;;;;;;12.15;6.35;;;;;;;;;;5078031;28;20475;-67
2023/05/20 03:11:00;;;;;;;14.35;5.68;;;;;;;;;;5071749;28;20117;-67
2023/05/20 03:13:26;;;;;;;12.10;5.82;;;;;;;;;;5073073;27;20070;-66
2023/05/20 03:15:53;;;;;;;17.08;6.30;;;;;;;;;;5092126;27;21019;-67
2023/05/20 03:18:19;;;;;;;15.82;5.75;;;;;;;;;;5096900;27;20090;-67
2023/05/20 03:20:46;;;;;;;12.38;4.95;;;;;;;;;;5093107;27;20051;-66
2023/05/20 03:23:12;;;;;;;16.20;7.20;;;;;;;;;;5099040;27;20031;-67
2023/05/20 03:25:40;;;;;;;11.57;5.80;;;;;;;;;;5077121;27;20044;-67
2023/05/20 03:28:06;;;;;;;9.68;5.28;;;;;;;;;;5089425;27;20039;-67
2023/05/20 03:30:32;;;;;;;14.35;6.03;;;;;;;;;;5075617;28;20061;-66
2023/05/20 03:32:59;;;;;;;16.65;5.72;;;;;;;;;;5075203;28;20166;-66
2023/05/20 03:35:25;;;;;;;11.45;5.07;;;;;;;;;;5094327;27;20047;-66
2023/05/20 03:37:52;;;;;;;12.73;5.50;;;;;;;;;;5078485;28;20050;-66
2023/05/20 03:40:19;;;;;;;10.65;5.15;;;;;;;;;;5094642;27;20519;-67
2023/05/20 03:42:46;;;;;;;13.95;5.57;;;;;;;;;;5073325;27;20047;-67
2023/05/20 03:45:12;;;;;;;11.82;5.47;;;;;;;;;;5094454;27;20044;-67
2023/05/20 03:47:38;;;;;;;8.38;4.32;;;;;;;;;;5071005;28;20047;-67
2023/05/20 03:50:05;;;;;;;11.07;4.88;;;;;;;;;;5075883;28;20147;-67
2023/05/20 03:52:31;;;;;;;13.05;4.95;;;;;;;;;;5075498;28;20118;-66
2023/05/20 03:54:57;;;;;;;10.23;4.20;;;;;;;;;;5056443;28;20055;-67
2023/05/20 03:57:23;;;;;;;10.82;4.35;;;;;;;;;;5096070;28;20194;-67
2023/05/20 03:59:50;;;;;;;8.93;4.07;;;;;;;;;;5095860;27;20120;-66
2023/05/20 04:02:16;;;;;;;9.48;4.60;;;;;;;;;;5091822;28;20028;-67
2023/05/20 04:04:42;;;;;;;8.80;4.20;;;;;;;;;;5077200;28;20502;-67
2023/05/20 04:07:09;;;;;;;9.55;4.28;;;;;;;;;;5098454;27;20063;-66
2023/05/20 04:09:35;;;;;;;13.00;4.85;;;;;;;;;;5093307;28;20048;-66
2023/05/20 04:12:02;;;;;;;9.45;4.00;;;;;;;;;;5100704;27;20491;-67
2023/05/20 04:14:28;;;;;;;13.95;4.00;;;;;;;;;;5079113;28;20044;-67
2023/05/20 04:16:55;;;;;;;10.05;3.75;;;;;;;;;;5076344;28;20194;-67
2023/05/20 04:19:22;;;;;;;11.15;3.80;;;;;;;;;;5079299;27;20348;-66
2023/05/20 04:21:49;;;;;;;6.93;2.92;;;;;;;;;;5072306;28;20491;-66
2023/05/20 04:24:15;;;;;;;8.65;3.75;;;;;;;;;;5102785;27;20357;-67
2023/05/20 04:26:42;;;;;;;7.53;2.70;;;;;;;;;;5074587;28;20148;-67
2023/05/20 04:29:08;;;;;;;6.65;2.65;;;;;;;;;;5090523;28;20476;-65
2023/05/20 04:31:34;;;;;;;8.07;3.10;;;;;;;;;;5093727;27;20040;-65
2023/05/20 04:34:01;;;;;;;7.22;3.00;;;;;;;;;;5072103;28;20043;-67
2023/05/20 04:36:28;;;;;;;6.57;2.47;;;;;;;;;;5089874;28;20052;-67
2023/05/20 04:38:56;;;;;;;6.93;2.67;;;;;;;;;;5094161;28;20059;-67
2023/05/20 04:41:22;;;;;;;5.45;2.80;;;;;;;;;;5094542;27;20075;-66
2023/05/20 04:43:49;;;;;;;8.05;2.67;;;;;;;;;;5073458;28;20054;-66
2023/05/20 04:46:16;;;;;;;6.15;2.67;;;;;;;;;;5091801;27;20067;-66
2023/05/20 04:48:42;;;;;;;7.10;2.78;;;;;;;;;;5090709;28;20119;-66
2023/05/20 04:51:09;;;;;;;6.03;2.50;;;;;;;;;;5071781;28;20181;-66
2023/05/20 04:53:35;;;;;;;4.63;1.98;;;;;;;;;;5072370;28;20481;-66
2023/05/20 04:56:02;;;;;;;5.72;2.58;;;;;;;;;;5070687;28;20083;-65
2023/05/20 04:58:29;;;;;;;7.15;2.47;;;;;;;;;;5071071;28;20044;-69
2023/05/20 05:00:55;;;;;;;7.75;2.33;;;;;;;;;;5077686;28;20051;-66
2023/05/20 05:03:21;;;;;;;6.63;2.30;;;;;;;;;;5071119;28;20111;-66
2023/05/20 05:05:48;;;;;;;6.75;2.58;;;;;;;;;;5071442;28;20032;-65
2023/05/20 05:08:14;;;;;;;5.47;1.95;;;;;;;;;;5093768;27;20089;-67
2023/05/20 05:10:40;;;;;;;7.78;2.00;;;;;;;;;;5098515;28;20066;-67
2023/05/20 05:13:06;;;;;;;6.60;2.33;;;;;;;;;;5096188;28;21048;-67
2023/05/20 05:15:32;;;;;;;5.95;1.90;;;;;;;;;;5077274;28;20051;-67
2023/05/20 05:17:58;;;;;;;6.13;1.88;;;;;;;;;;5075798;28;20036;-67
2023/05/20 05:20:25;;;;;;;5.03;1.75;;;;;;;;;;5091383;28;20051;-67
2023/05/20 05:22:51;;;;;;;5.47;1.90;;;;;;;;;;5079042;28;20505;-67
2023/05/20 05:25:17;;;;;;;4.00;1.83;;;;;;;;;;5068567;28;20058;-67
2023/05/20 05:27:44;;;;;;;4.28;1.73;;;;;;;;;;5077701;28;20416;-67
2023/05/20 05:30:10;;;;;;;6.70;1.98;;;;;;;;;;5096269;28;20036;-67
2023/05/20 05:32:37;;;;;;;6.53;1.85;;;;;;;;;;5076968;28;20491;-67
2023/05/20 05:35:03;;;;;;;3.70;1.75;;;;;;;;;;5069833;28;20415;-67
2023/05/20 05:37:29;;;;;;;5.05;1.55;;;;;;;;;;5075612;28;20044;-67
2023/05/20 05:39:55;;;;;;;6.18;1.98;;;;;;;;;;5073390;28;20051;-67
2023/05/20 05:42:22;;;;;;;3.65;1.48;;;;;;;;;;5078386;28;20043;-67
2023/05/20 05:44:48;;;;;;;6.25;1.70;;;;;;;;;;5075243;28;20488;-67
2023/05/20 05:47:14;;;;;;;4.68;1.90;;;;;;;;;;5073434;28;20043;-67
2023/05/20 05:49:40;;;;;;;6.35;1.73;;;;;;;;;;5081645;28;20373;-67
2023/05/20 05:52:07;;;;;;;2.92;1.38;;;;;;;;;;5083583;28;20045;-67
2023/05/20 05:54:33;;;;;;;3.78;1.50;;;;;;;;;;5082721;28;20036;-67
2023/05/20 05:56:59;;;;;;;5.93;1.92;;;;;;;;;;5077476;28;20108;-67
2023/05/20 05:59:25;;;;;;;3.88;1.45;;;;;;;;;;5075765;28;20036;-67
2023/05/20 06:01:51;;;;;;;3.70;1.70;;;;;;;;;;5083667;28;20090;-67
2023/05/20 06:04:17;;;;;;;4.65;1.30;;;;;;;;;;5080055;28;20036;-67
2023/05/20 06:06:43;;;;;;;3.30;1.52;;;;;;;;;;5079337;28;20048;-67
2023/05/20 06:09:10;;;;;;;3.92;1.67;;;;;;;;;;5074654;28;20036;-67
2023/05/20 06:11:36;;;;;;;5.00;1.70;;;;;;;;;;5076090;28;20198;-67
2023/05/20 06:14:02;;;;;;;3.70;1.33;;;;;;;;;;5076303;28;20046;-67
2023/05/20 06:16:28;;;;;;;5.97;1.50;;;;;;;;;;5075526;28;20048;-68
2023/05/20 06:18:56;;;;;;;4.43;1.48;;;;;;;;;;5082914;28;20040;-67
2023/05/20 06:21:22;;;;;;;6.32;1.75;;;;;;;;;;5080059;28;20052;-67
2023/05/20 06:23:48;;;;;;;2.97;1.45;;;;;;;;;;5076559;28;20102;-67
2023/05/20 06:26:15;;;;;;;5.13;1.60;;;;;;;;;;5072417;28;20053;-68
2023/05/20 06:28:41;;;;;;;4.78;1.30;;;;;;;;;;5061960;28;20229;-67
2023/05/20 06:31:07;;;;;;;5.45;1.33;;;;;;;;;;5081838;28;20039;-67
2023/05/20 06:33:34;;;;;;;6.40;1.63;;;;;;;;;;5078389;28;20068;-67
2023/05/20 06:36:01;;;;;;;5.13;1.92;;;;;;;;;;5077985;28;20550;-67
2023/05/20 06:38:27;;;;;;;3.90;1.63;;;;;;;;;;5073357;28;20059;-67
2023/05/20 06:40:53;;;;;;;3.80;1.25;;;;;;;;;;5056688;28;20400;-67
2023/05/20 06:43:19;;;;;;;5.53;1.48;;;;;;;;;;5078338;28;20059;-67
2023/05/20 06:45:45;;;;;;;4.40;1.25;;;;;;;;;;5076880;28;20105;-67
2023/05/20 06:48:12;;;;;;;3.13;1.00;;;;;;;;;;5077026;28;20472;-67
2023/05/20 06:50:38;;;;;;;3.88;1.40;;;;;;;;;;5080214;28;20044;-67
2023/05/20 06:53:04;;;;;;;4.75;1.50;;;;;;;;;;5073070;28;20039;-67
2023/05/20 06:55:30;;;;;;;8.65;1.27;;;;;;;;;;5072998;28;20051;-67
2023/05/20 06:57:56;;;;;;;4.90;1.13;;;;;;;;;;5082108;28;20066;-67
2023/05/20 07:00:23;;;;;;;3.08;1.55;;;;;;;;;;5077917;28;20054;-67
2023/05/20 07:02:49;;;;;;;4.30;1.23;;;;;;;;;;5078144;28;20087;-67
2023/05/20 07:05:15;;;;;;;4.80;1.33;;;;;;;;;;5075764;28;20057;-67
2023/05/20 07:07:41;;;;;;;4.57;1.50;;;;;;;;;;5084726;28;20051;-67
2023/05/20 07:10:08;;;;;;;6.32;1.60;;;;;;;;;;5076543;28;20047;-67
2023/05/20 07:12:34;;;;;;;3.85;1.40;;;;;;;;;;5076795;28;20048;-67
2023/05/20 07:15:00;;;;;;;5.45;1.30;;;;;;;;;;5077716;28;20086;-67
2023/05/20 07:17:28;;;;;;;7.78;1.60;;;;;;;;;;5077820;28;20076;-67
2023/05/20 07:19:55;;;;;;;8.20;1.77;;;;;;;;;;5083209;28;21809;-67
2023/05/20 07:22:21;;;;;;;4.20;1.58;;;;;;;;;;5079476;28;20094;-67
2023/05/20 07:24:48;;;;;;;3.15;1.35;;;;;;;;;;5079631;28;20476;-67
2023/05/20 07:27:14;;;;;;;4.80;1.60;;;;;;;;;;5078644;28;20135;-67
2023/05/20 07:29:40;;;;;;;3.70;1.35;;;;;;;;;;5076712;28;20047;-67
2023/05/20 07:32:09;;;;;;;8.23;1.60;;;;;;;;;;5076103;28;20428;-67
2023/05/20 07:34:35;;;;;;;5.95;1.40;;;;;;;;;;5071289;28;20040;-67
2023/05/20 07:37:01;;;;;;;10.23;1.90;;;;;;;;;;5084981;28;20142;-67
2023/05/20 07:39:28;;;;;;;4.00;1.30;;;;;;;;;;5103478;27;20729;-67
2023/05/20 07:41:55;;;;;;;4.47;1.40;;;;;;;;;;5097535;27;20528;-67
2023/05/20 07:44:22;;;;;;;6.22;1.40;;;;;;;;;;5078017;28;20043;-67
2023/05/20 07:46:48;;;;;;;5.15;1.48;;;;;;;;;;5075081;27;20055;-67
2023/05/20 07:49:14;;;;;;;5.45;1.40;;;;;;;;;;5100868;27;20039;-67
2023/05/20 07:51:40;;;;;;;4.85;1.65;;;;;;;;;;5094871;27;20044;-67
2023/05/20 07:54:06;;;;;;;5.97;1.75;;;;;;;;;;5102133;27;20040;-67
2023/05/20 07:56:32;;;;;;;5.93;1.75;;;;;;;;;;5079492;27;20173;-67
2023/05/20 07:59:00;;;;;;;5.55;1.67;;;;;;;;;;5076879;27;20040;-67
2023/05/20 08:01:26;;;;;;;3.75;1.50;;;;;;;;;;5079476;28;20044;-67
2023/05/20 08:03:53;;;;;;;5.53;1.65;;;;;;;;;;5098012;27;20085;-68
2023/05/20 08:06:20;;;;;;;4.90;1.48;;;;;;;;;;5098584;27;20066;-67
2023/05/20 08:08:46;;;;;;;6.93;1.40;;;;;;;;;;5096224;27;20042;-67
2023/05/20 08:11:12;;;;;;;7.43;1.55;;;;;;;;;;5080049;28;20047;-67
2023/05/20 08:13:39;;;;;;;4.75;1.80;;;;;;;;;;5097471;27;20178;-67
2023/05/20 08:16:06;;;;;;;8.52;1.65;;;;;;;;;;5086841;28;20051;-67
2023/05/20 08:18:32;;;;;;;11.93;1.50;;;;;;;;;;5096828;27;20038;-67
2023/05/20 08:20:59;;;;;;;4.03;1.35;;;;;;;;;;5096016;28;20036;-67
2023/05/20 08:23:25;;;;;;;5.90;1.55;;;;;;;;;;5081179;28;20097;-67
2023/05/20 08:25:51;;;;;;;6.22;1.60;;;;;;;;;;5081229;27;20337;-67
2023/05/20 08:28:17;;;;;;;6.50;1.40;;;;;;;;;;5098717;27;20092;-67
2023/05/20 08:30:44;;;;;;;4.10;1.45;;;;;;;;;;5076362;28;20377;-67
2023/05/20 08:33:11;;;;;;;4.00;1.42;;;;;;;;;;5079664;27;20048;-67
2023/05/20 08:35:39;;;;;;;5.22;1.70;;;;;;;;;;5107574;27;20460;-67
2023/05/20 08:38:05;;;;;;;2.90;1.17;;;;;;;;;;5096760;28;20046;-67
2023/05/20 08:40:35;;;;;;;5.70;1.40;;;;;;;;;;5097974;28;20049;-67
2023/05/20 08:43:01;;;;;;;8.80;1.92;;;;;;;;;;5077371;28;20127;-68
2023/05/20 08:45:30;;;;;;;3.88;1.40;;;;;;;;;;5080355;27;20082;-67
2023/05/20 08:47:57;;;;;;;3.85;1.13;;;;;;;;;;5075264;28;20104;-67
2023/05/20 08:50:23;;;;;;;4.07;1.35;;;;;;;;;;5078349;28;20122;-67
2023/05/20 08:52:49;;;;;;;4.13;1.17;;;;;;;;;;5093334;27;20097;-67
2023/05/20 08:55:21;;;;;;;5.30;1.58;;;;;;;;;;5083159;27;20113;-67
2023/05/20 08:57:48;;;;;;;4.43;1.65;;;;;;;;;;5098745;28;20089;-67
2023/05/20 09:00:15;;;;;;;5.95;1.40;;;;;;;;;;5082405;28;20553;-67
2023/05/20 09:02:42;;;;;;;6.38;1.38;;;;;;;;;;5079368;28;20055;-67
2023/05/20 09:05:10;;;;;;;6.97;1.42;;;;;;;;;;5094375;28;20200;-67
2023/05/20 09:07:36;;;;;;;5.18;1.40;;;;;;;;;;5077586;28;20044;-67
2023/05/20 09:10:03;;;;;;;3.88;1.35;;;;;;;;;;5097159;28;20084;-67
2023/05/20 09:12:29;;;;;;;4.45;1.55;;;;;;;;;;5096353;27;20100;-67
2023/05/20 09:14:55;;;;;;;6.85;1.30;;;;;;;;;;5098559;28;20036;-67
2023/05/20 09:17:22;;;;;;;4.43;1.40;;;;;;;;;;5078498;28;20125;-67
2023/05/20 09:19:50;;;;;;;5.15;1.20;;;;;;;;;;5076985;28;20146;-67
2023/05/20 09:22:21;;;;;;;3.63;1.20;;;;;;;;;;5097450;28;20036;-67
2023/05/20 09:24:48;;;;;;;4.38;1.48;;;;;;;;;;5097066;27;20038;-67
2023/05/20 09:27:14;;;;;;;9.20;2.10;;;;;;;;;;5099620;27;20082;-67
2023/05/20 09:29:42;;;;;;;4.90;1.63;;;;;;;;;;5088180;28;20040;-67
2023/05/20 09:32:09;;;;;;;5.72;1.42;;;;;;;;;;5099486;27;20150;-67
2023/05/20 09:34:35;;;;;;;4.65;1.73;;;;;;;;;;5081918;27;20048;-67
2023/05/20 09:37:02;;;;;;;5.22;1.75;;;;;;;;;;5104937;27;20044;-67
2023/05/20 09:39:30;;;;;;;7.50;1.52;;;;;;;;;;5085371;27;20059;-67
2023/05/20 09:42:01;;;;;;;12.15;1.40;;;;;;;;;;5098484;27;20043;-67
2023/05/20 09:44:28;;;;;;;4.47;1.55;;;;;;;;;;5070143;28;20055;-67
2023/05/20 09:46:56;;;;;;;3.97;1.15;;;;;;;;;;5088645;28;20039;-67
2023/05/20 09:49:23;;;;;;;5.45;1.27;;;;;;;;;;5108149;27;20046;-67
2023/05/20 09:51:49;;;;;;;3.83;1.40;;;;;;;;;;5100358;27;20052;-68
2023/05/20 09:54:18;;;;;;;8.55;1.92;;;;;;;;;;5079101;28;20040;-67
2023/05/20 09:56:44;;;;;;;6.03;1.40;;;;;;;;;;5080483;28;20028;-67
2023/05/20 09:59:11;;;;;;;7.32;1.70;;;;;;;;;;5079364;27;20131;-67
2023/05/20 10:01:37;;;;;;;6.35;1.60;;;;;;;;;;5084905;27;21935;-67
2023/05/20 10:04:05;;;;;;;7.30;2.15;;;;;;;;;;5080648;27;20383;-68
2023/05/20 10:06:42;;;;;;;5.65;1.50;;;;;;;;;;5081388;27;20547;-67
2023/05/20 10:09:22;;;;;;;4.28;1.77;;;;;;;;;;5101596;27;20082;-68
2023/05/20 10:12:00;;;;;;;6.22;1.80;;;;;;;;;;5100583;27;20127;-68
2023/05/20 10:14:37;;;;;;;10.20;1.80;;;;;;;;;;5080487;28;20117;-67
2023/05/20 10:17:23;;;;;;;4.53;1.95;;;;;;;;;;5099027;27;20036;-67
2023/05/20 10:19:49;;;;;;;5.22;1.60;;;;;;;;;;5078408;27;20039;-67
2023/05/20 10:22:26;;;;;;;9.65;2.47;;;;;;;;;;5098795;27;20119;-67
2023/05/20 10:24:58;;;;;;;6.68;2.00;;;;;;;;;;5078078;28;20040;-67
2023/05/20 10:27:24;;;;;;;6.18;1.88;;;;;;;;;;5079241;28;20071;-68
2023/05/20 10:29:51;;;;;;;7.93;1.60;;;;;;;;;;5093621;27;20048;-68
2023/05/20 10:32:24;;;;;;;5.80;1.83;;;;;;;;;;5098899;27;20040;-68
2023/05/20 10:34:50;;;;;;;;;;;;;;;;;;5080115;28;20046;-68
2023/05/20 10:37:27;;;;;;;4.55;1.67;;;;;;;;;;5098027;27;19919;-68
2023/05/20 10:40:03;;;;;;;8.85;2.17;;;;;;;;;;5079096;28;20052;-68
2023/05/20 10:42:30;;;;;;;6.78;2.15;;;;;;;;;;5097473;27;20043;-67
2023/05/20 10:44:56;;;;;;;6.60;1.70;;;;;;;;;;5093711;27;20459;-67
2023/05/20 10:47:22;;;;;;;7.90;1.98;;;;;;;;;;5093419;27;20467;-67
2023/05/20 10:49:48;;;;;;;9.60;2.40;;;;;;;;;;5077479;28;20039;-67
2023/05/20 10:52:16;;;;;;;5.55;1.70;;;;;;;;;;5084686;27;20118;-67
2023/05/20 10:54:43;;;;;;;10.48;2.13;;;;;;;;;;5077273;28;20040;-67
2023/05/20 10:57:10;;;;;;;7.38;1.75;;;;;;;;;;5092704;28;20105;-68
2023/05/20 10:59:36;;;;;;;4.88;1.83;;;;;;;;;;5079968;27;20041;-67
2023/05/20 11:02:03;;;;;;;9.07;2.67;;;;;;;;;;5101772;27;20513;-67
2023/05/20 11:04:30;;;;;;;6.93;1.75;;;;;;;;;;5093788;27;20047;-68
2023/05/20 11:06:57;;;;;;;7.40;2.33;;;;;;;;;;5078512;28;20043;-67
2023/05/20 11:09:24;;;;;;;7.90;1.92;;;;;;;;;;5076744;28;20062;-68
2023/05/20 11:11:51;;;;;;;7.15;2.00;;;;;;;;;;5101212;27;20047;-67
2023/05/20 11:14:18;;;;;;;7.07;2.20;;;;;;;;;;5074862;28;20040;-67
2023/05/20 11:16:45;;;;;;;6.25;1.60;;;;;;;;;;5094097;27;20040;-68
2023/05/20 11:19:18;;;;;;;7.63;2.15;;;;;;;;;;5098267;27;20074;-67
2023/05/20 11:21:44;;;;;;;;;;;;;;;;;;5096751;27;20051;-68
2023/05/20 11:24:11;;;;;;;5.60;1.75;;;;;;;;;;5061406;27;19927;-67
2023/05/20 11:26:38;;;;;;;7.80;2.10;;;;;;;;;;5068976;28;20109;-68
2023/05/20 11:29:04;;;;;;;7.93;1.77;;;;;;;;;;5094801;27;20380;-67
2023/05/20 11:31:31;;;;;;;6.43;2.40;;;;;;;;;;5070977;27;20424;-67
2023/05/20 11:34:01;;;;;;;6.45;2.58;;;;;;;;;;5083381;28;20035;-68
2023/05/20 11:36:27;;;;;;;6.55;2.20;;;;;;;;;;5079511;28;20055;-68
2023/05/20 11:38:54;;;;;;;5.57;1.83;;;;;;;;;;5104498;27;20047;-67
2023/05/20 11:41:27;;;;;;;6.15;2.10;;;;;;;;;;5084663;28;20048;-67
2023/05/20 11:43:58;;;;;;;7.97;2.58;;;;;;;;;;5096970;27;21892;-67
2023/05/20 11:46:24;;;;;;;6.90;2.03;;;;;;;;;;5081113;27;20042;-67
2023/05/20 11:48:51;;;;;;;6.38;1.85;;;;;;;;;;5096317;27;20036;-67
2023/05/20 11:51:17;;;;;;;7.55;2.05;;;;;;;;;;5084439;28;20048;-67
2023/05/20 11:53:47;;;;;;;8.27;1.98;;;;;;;;;;5095169;28;20067;-68
2023/05/20 11:56:13;;;;;;;6.97;2.25;;;;;;;;;;5096065;27;20062;-68
2023/05/20 11:58:40;;;;;;;5.50;2.08;;;;;;;;;;5077323;28;20044;-67
2023/05/20 12:01:06;;;;;;;6.40;1.90;;;;;;;;;;5094116;27;20034;-68
2023/05/20 12:03:32;;;;;;;6.43;1.77;;;;;;;;;;5075138;28;20044;-68
2023/05/20 12:06:00;;;;;;;7.63;2.15;;;;;;;;;;5098045;27;20498;-68
2023/05/20 12:08:26;;;;;;;5.95;2.08;;;;;;;;;;5077947;27;20047;-67
2023/05/20 12:10:53;;;;;;;9.20;2.10;;;;;;;;;;5097702;27;20403;-67
2023/05/20 12:13:19;;;;;;;10.30;2.05;;;;;;;;;;5077737;28;20048;-67
2023/05/20 12:15:45;;;;;;;10.15;2.15;;;;;;;;;;5080423;27;20043;-67
2023/05/20 12:18:11;;;;;;;5.03;2.20;;;;;;;;;;5078119;28;20040;-67
2023/05/20 12:20:37;;;;;;;5.65;2.25;;;;;;;;;;5093802;27;20032;-67
2023/05/20 12:23:04;;;;;;;4.85;2.30;;;;;;;;;;5077873;28;20044;-67
2023/05/20 12:25:30;;;;;;;6.18;2.15;;;;;;;;;;5098025;27;20471;-68
2023/05/20 12:27:56;;;;;;;6.57;2.50;;;;;;;;;;5076459;27;20083;-68
2023/05/20 12:30:23;;;;;;;5.82;1.80;;;;;;;;;;5094331;27;20036;-68
2023/05/20 12:32:50;;;;;;;9.10;2.50;;;;;;;;;;5095398;27;20044;-67
2023/05/20 12:35:17;;;;;;;4.68;2.10;;;;;;;;;;5077093;27;20047;-68
2023/05/20 12:37:43;;;;;;;6.10;2.50;;;;;;;;;;5097485;27;20127;-67
2023/05/20 12:40:11;;;;;;;6.05;2.63;;;;;;;;;;5075619;27;20623;-68
2023/05/20 12:42:38;;;;;;;6.82;2.45;;;;;;;;;;5097779;27;20051;-68
2023/05/20 12:45:05;;;;;;;7.32;2.55;;;;;;;;;;5097304;27;20031;-68
2023/05/20 12:47:31;;;;;;;7.43;2.13;;;;;;;;;;5075511;28;20105;-68
2023/05/20 12:49:58;;;;;;;7.82;2.83;;;;;;;;;;5095601;27;20494;-68
2023/05/20 12:52:25;;;;;;;4.97;2.28;;;;;;;;;;5082992;28;20076;-67
2023/05/20 12:54:51;;;;;;;6.90;2.55;;;;;;;;;;5076308;27;20118;-67
2023/05/20 12:57:17;;;;;;;7.80;2.60;;;;;;;;;;5094103;28;20039;-68
2023/05/20 12:59:44;;;;;;;8.23;2.70;;;;;;;;;;5096397;28;20083;-67
2023/05/20 13:02:10;;;;;;;6.30;2.03;;;;;;;;;;5071775;28;20043;-65
2023/05/20 13:04:36;;;;;;;6.85;2.00;;;;;;;;;;5075519;28;20059;-65
2023/05/20 13:07:03;;;;;;;6.93;2.58;;;;;;;;;;5072254;28;20048;-65
2023/05/20 13:09:29;;;;;;;4.72;2.70;;;;;;;;;;5074278;28;20044;-65
2023/05/20 13:11:55;;;;;;;8.52;2.25;;;;;;;;;;5101518;28;20475;-65
2023/05/20 13:14:22;;;;;;;8.20;2.63;;;;;;;;;;5094805;28;20042;-65
2023/05/20 13:16:49;;;;;;;6.88;2.45;;;;;;;;;;5078482;28;20059;-65
2023/05/20 13:19:15;;;;;;;9.20;2.78;;;;;;;;;;5098386;28;20074;-65
2023/05/20 13:21:41;;;;;;;8.02;2.90;;;;;;;;;;5081507;28;20074;-65
2023/05/20 13:24:07;;;;;;;8.82;2.50;;;;;;;;;;5095873;28;20559;-65
2023/05/20 13:26:34;;;;;;;9.32;2.60;;;;;;;;;;5078369;28;20469;-65
2023/05/20 13:29:00;;;;;;;7.28;2.85;;;;;;;;;;5097647;28;20114;-65
2023/05/20 13:31:26;;;;;;;8.90;3.03;;;;;;;;;;5077276;28;20951;-65
2023/05/20 13:33:53;;;;;;;9.88;3.40;;;;;;;;;;5077180;28;20483;-65
2023/05/20 13:36:20;;;;;;;8.82;3.08;;;;;;;;;;5102435;28;20062;-65
2023/05/20 13:38:46;;;;;;;8.98;3.20;;;;;;;;;;5079700;28;20366;-65
2023/05/20 13:41:12;;;;;;;6.45;2.80;;;;;;;;;;5100821;28;20458;-65
2023/05/20 13:43:40;;;;;;;6.40;2.30;;;;;;;;;;5095244;28;20043;-65
2023/05/20 13:46:07;;;;;;;9.85;2.80;;;;;;;;;;5095897;28;20127;-65
2023/05/20 13:48:33;;;;;;;7.00;2.70;;;;;;;;;;5074373;28;20040;-65
2023/05/20 13:51:00;;;;;;;6.75;2.97;;;;;;;;;;5075422;28;20100;-65
2023/05/20 13:53:27;;;;;;;9.15;2.90;;;;;;;;;;5077455;28;20043;-65
2023/05/20 13:55:53;;;;;;;6.78;2.58;;;;;;;;;;5100589;28;20163;-65
2023/05/20 13:58:19;;;;;;;7.28;2.78;;;;;;;;;;5094577;28;20036;-65
2023/05/20 14:00:45;;;;;;;6.10;2.35;;;;;;;;;;5095073;28;20576;-65
2023/05/20 14:03:12;;;;;;;6.90;2.45;;;;;;;;;;5098505;28;20043;-65
2023/05/20 14:05:39;;;;;;;8.23;2.25;;;;;;;;;;5079284;28;20059;-65
2023/05/20 14:08:05;;;;;;;7.47;2.70;;;;;;;;;;5075004;28;20150;-65
2023/05/20 14:10:32;;;;;;;7.55;2.53;;;;;;;;;;5074683;28;20146;-65
2023/05/20 14:13:00;;;;;;;8.73;2.40;;;;;;;;;;5082706;28;20044;-65
2023/05/20 14:15:29;;;;;;;6.32;2.53;;;;;;;;;;5078696;28;20139;-65
2023/05/20 14:17:56;;;;;;;7.88;2.25;;;;;;;;;;5080755;28;20035;-65
2023/05/20 14:20:23;;;;;;;13.90;2.67;;;;;;;;;;5102512;27;20040;-65
2023/05/20 14:22:49;;;;;;;9.18;2.88;;;;;;;;;;5079405;28;20044;-65
2023/05/20 14:25:15;;;;;;;5.63;2.00;;;;;;;;;;5097932;27;20145;-64
2023/05/20 14:27:41;;;;;;;8.23;2.45;;;;;;;;;;5092938;27;20073;-65
2023/05/20 14:30:08;;;;;;;7.00;2.40;;;;;;;;;;5097346;27;20032;-65
2023/05/20 14:32:34;;;;;;;5.85;2.45;;;;;;;;;;5094905;27;20084;-65
2023/05/20 14:35:00;;;;;;;7.72;2.25;;;;;;;;;;5098567;27;20056;-66
2023/05/20 14:37:26;;;;;;;5.60;2.63;;;;;;;;;;5095443;27;20123;-65